»·PEaware :: UAL745 KLAX-KPHX

UAL745 :: KLAX-KPHX

FLIGHT INFORMATION

Flight Status: Arrived
Operator:
United Airlines
More flights by this operator :: More flights under this callsign
Pilot: Max W. (2591)
Aircraft: AIRBUS A319
(A319)
More flights by this aircraft type
Origin: KLAX Los Angeles Intl
United States
Destination: KPHX Phoenix Sky Harbor Intl
United States
More flights between these airports :: More routes between these airports
Route: +DOTSS2 CNERY BLH HYDRR1
File this flight plan on PilotEdge
Remarks:
Altitude:
(Current/Filed)
29,000ft
Speed:
(Current/Filed)
450kts
Departed: 17-Oct-19 10:25 AM
Arrived: 17-Oct-19 11:19 AM
Distance/Time
Traveled:
321nm/0:54
Distance/Time
To Go:
Arrived

Flight Plot

Page will automatically refresh every two minutes.

Flight plan parsing failed; only flown route is shown


Map Options




Map Legend


Flown Route
Filed Route
Departure Airport
Arrival Airport
Navaid (VOR, NDB)
Fix

Horizontal Profiles

Position Reports

Time Latitude Longitude Heading Altitude Ground
Speed
17-Oct-19 09:55 33.941574 -118.400161 95 112ft 0kts
17-Oct-19 09:56 33.941574 -118.400162 95 112ft 0kts
17-Oct-19 09:57 33.941574 -118.400162 95 112ft 0kts
17-Oct-19 09:58 33.941574 -118.400162 95 112ft 0kts
17-Oct-19 09:59 33.941574 -118.400162 95 112ft 0kts
17-Oct-19 10:00 33.941574 -118.400162 95 112ft 0kts
17-Oct-19 10:01 33.941574 -118.400162 95 112ft 0kts
17-Oct-19 10:02 33.941574 -118.400162 95 112ft 0kts
17-Oct-19 10:03 33.941574 -118.400162 95 112ft 0kts
17-Oct-19 10:04 33.941574 -118.400162 95 112ft 0kts
17-Oct-19 10:08 33.941574 -118.400161 95 112ft 0kts
17-Oct-19 10:09 33.941574 -118.400161 95 112ft 0kts
17-Oct-19 10:10 33.941574 -118.400162 95 112ft 0kts
17-Oct-19 10:11 33.941574 -118.400162 95 112ft 0kts
17-Oct-19 10:12 33.941574 -118.400162 95 112ft 0kts
17-Oct-19 10:13 33.941574 -118.400162 95 112ft 0kts
17-Oct-19 10:14 33.941574 -118.400162 95 112ft 0kts
17-Oct-19 10:15 33.941574 -118.400162 95 112ft 0kts
17-Oct-19 10:16 33.941574 -118.400162 95 112ft 0kts
17-Oct-19 10:17 33.941604 -118.400617 97 112ft 2kts
17-Oct-19 10:18 33.941888 -118.400898 172 112ft 0kts
17-Oct-19 10:19 33.941888 -118.400898 172 112ft 0kts
17-Oct-19 10:20 33.941187 -118.400793 173 112ft 15kts
17-Oct-19 10:21 33.938957 -118.400296 139 112ft 17kts
17-Oct-19 10:22 33.939637 -118.391419 83 112ft 31kts
17-Oct-19 10:23 33.940425 -118.383692 91 112ft 0kts
17-Oct-19 10:24 33.937338 -118.404473 263 118ft 176kts
17-Oct-19 10:25 33.928260 -118.463427 234 2505ft 195kts
17-Oct-19 10:26 33.887120 -118.523466 229 4330ft 272kts
17-Oct-19 10:27 33.820047 -118.555121 165 7383ft 295kts
17-Oct-19 10:28 33.738369 -118.531533 171 10354ft 311kts
17-Oct-19 10:29 33.675040 -118.451927 108 11420ft 399kts
17-Oct-19 10:30 33.644513 -118.322288 95 14271ft 411kts
17-Oct-19 10:31 33.643998 -118.182500 89 16610ft 428kts
17-Oct-19 10:32 33.644085 -118.034567 89 18389ft 452kts
17-Oct-19 10:33 33.643886 -117.881117 89 20329ft 466kts
17-Oct-19 10:34 33.626967 -117.725222 107 22085ft 478kts
17-Oct-19 10:35 33.588297 -117.570626 107 23664ft 490kts
17-Oct-19 10:36 33.548963 -117.411936 107 25097ft 500kts
17-Oct-19 10:37 33.510456 -117.250082 102 26312ft 510kts
17-Oct-19 10:38 33.501951 -117.081207 90 28123ft 501kts
17-Oct-19 10:40 33.499971 -116.912204 92 28734ft 519kts
17-Oct-19 10:41 33.497142 -116.738060 93 28872ft 524kts
17-Oct-19 10:42 33.494172 -116.563594 93 28827ft 524kts
17-Oct-19 10:43 33.491067 -116.389178 93 28787ft 524kts
17-Oct-19 10:44 33.488564 -116.217597 93 28764ft 524kts
17-Oct-19 10:45 33.489762 -116.042577 83 28760ft 527kts
17-Oct-19 10:46 33.531639 -115.874235 70 28761ft 528kts
17-Oct-19 10:47 33.580499 -115.708686 70 28761ft 528kts
17-Oct-19 10:48 33.627206 -115.541508 77 28760ft 528kts
17-Oct-19 10:49 33.630915 -115.376273 103 28761ft 520kts
17-Oct-19 10:50 33.607815 -115.213355 94 28779ft 524kts
17-Oct-19 10:51 33.603512 -115.038758 95 28793ft 527kts
17-Oct-19 10:52 33.598587 -114.862553 97 28796ft 527kts
17-Oct-19 10:53 33.582153 -114.690168 109 28796ft 516kts
17-Oct-19 10:54 33.549097 -114.522477 109 28797ft 517kts
17-Oct-19 10:55 33.516168 -114.354674 108 27498ft 518kts
17-Oct-19 10:56 33.484809 -114.194779 109 24813ft 501kts
17-Oct-19 10:57 33.454056 -114.038964 110 24806ft 435kts
17-Oct-19 10:58 33.425894 -113.899917 110 24824ft 430kts
17-Oct-19 10:58 33.402280 -113.782917 110 24819ft 436kts
17-Oct-19 11:00 33.369228 -113.619504 109 23192ft 427kts
17-Oct-19 11:01 33.341831 -113.484832 109 21533ft 410kts
17-Oct-19 11:01 33.321911 -113.375180 106 20070ft 401kts
17-Oct-19 11:02 33.301818 -113.257456 107 18461ft 388kts
17-Oct-19 11:04 33.280131 -113.112259 104 16648ft 368kts
17-Oct-19 11:04 33.275196 -113.012963 92 15684ft 352kts
17-Oct-19 11:05 33.278204 -112.900814 92 15034ft 334kts
17-Oct-19 11:06 33.290731 -112.791150 68 15031ft 342kts
17-Oct-19 11:07 33.329370 -112.689739 67 14059ft 326kts
17-Oct-19 11:08 33.364985 -112.596502 67 12238ft 298kts
17-Oct-19 11:09 33.398272 -112.509244 67 10330ft 270kts
17-Oct-19 11:10 33.425449 -112.431777 76 8793ft 246kts
17-Oct-19 11:11 33.429363 -112.355176 92 7358ft 211kts
17-Oct-19 11:12 33.429424 -112.289308 92 5365ft 198kts
17-Oct-19 11:13 33.429265 -112.225607 91 4341ft 186kts
17-Oct-19 11:14 33.429083 -112.163907 91 3364ft 184kts
17-Oct-19 11:15 33.428979 -112.109500 91 2479ft 149kts
17-Oct-19 11:16 33.428900 -112.060336 91 1707ft 147kts
17-Oct-19 11:17 33.428861 -112.013383 89 1118ft 93kts
17-Oct-19 11:18 33.432162 -112.006998 269 1118ft 13kts

Navigation Log

Ident Type
Flight plan parsing failed, navigation log unavailable